Time;durP1;ratioP1;P1;durP2;ratioP2;P2;SDS_P1;SDS_P2;PMS_P1;PMS_P2;Temp;Humidity;BMP_temperature;BMP_pressure;BME280_temperature;BME280_humidity;BME280_pressure;Samples;Min_cycle;Max_cycle;Signal;HPM_P1;HPM_P2
2023/08/18 00:02:23;;;;;;;4.15;1.88;;;16.30;99.90;;;;;;5053550;28;20049;-73
2023/08/18 00:04:49;;;;;;;4.22;1.70;;;16.30;99.90;;;;;;5053421;28;20037;-73
2023/08/18 00:07:15;;;;;;;4.57;1.80;;;16.30;99.90;;;;;;5053521;28;20124;-73
2023/08/18 00:09:43;;;;;;;4.30;1.63;;;16.30;99.90;;;;;;5054004;28;20056;-73
2023/08/18 00:12:09;;;;;;;3.20;1.80;;;16.30;99.90;;;;;;5052477;28;20048;-73
2023/08/18 00:14:35;;;;;;;3.13;1.70;;;16.30;99.90;;;;;;5052785;28;20056;-73
2023/08/18 00:17:01;;;;;;;3.10;1.58;;;16.30;99.90;;;;;;5053138;28;20401;-73
2023/08/18 00:19:27;;;;;;;3.08;1.60;;;16.30;99.90;;;;;;5052710;28;20053;-73
2023/08/18 00:21:52;;;;;;;4.13;1.55;;;16.30;99.90;;;;;;5053651;28;20044;-73
2023/08/18 00:24:18;;;;;;;3.45;1.52;;;16.30;99.90;;;;;;5055709;28;20049;-73
2023/08/18 00:26:45;;;;;;;3.80;1.65;;;16.30;99.90;;;;;;5057397;28;20086;-73
2023/08/18 00:29:12;;;;;;;3.45;1.55;;;16.20;99.90;;;;;;5057722;28;20068;-73
2023/08/18 00:31:37;;;;;;;2.90;1.83;;;16.20;99.90;;;;;;5039434;28;20131;-73
2023/08/18 00:34:04;;;;;;;3.00;1.67;;;16.30;99.90;;;;;;5057212;28;20128;-73
2023/08/18 00:36:30;;;;;;;2.83;1.90;;;16.20;99.90;;;;;;5057744;28;20049;-73
2023/08/18 00:38:58;;;;;;;2.70;1.50;;;16.20;99.90;;;;;;5057119;28;20081;-73
2023/08/18 00:41:24;;;;;;;3.72;1.63;;;16.20;99.90;;;;;;5057066;28;20057;-72
2023/08/18 00:43:50;;;;;;;4.72;1.75;;;16.20;99.90;;;;;;5057043;28;20057;-73
2023/08/18 00:46:17;;;;;;;2.85;1.83;;;16.20;99.90;;;;;;5056905;28;20044;-73
2023/08/18 00:48:44;;;;;;;4.47;1.75;;;16.20;99.90;;;;;;5056986;28;20056;-72
2023/08/18 00:51:11;;;;;;;2.53;1.52;;;16.20;99.90;;;;;;5056625;28;20575;-72
2023/08/18 00:53:39;;;;;;;3.78;1.63;;;16.20;99.90;;;;;;5039070;28;20124;-73
2023/08/18 00:56:07;;;;;;;2.50;1.60;;;16.10;99.90;;;;;;5056815;28;20045;-73
2023/08/18 00:58:34;;;;;;;4.43;1.80;;;16.20;99.90;;;;;;5056868;28;20052;-73
2023/08/18 01:01:02;;;;;;;4.68;1.58;;;16.10;99.90;;;;;;5057328;28;20057;-73
2023/08/18 01:03:28;;;;;;;2.70;1.55;;;16.10;99.90;;;;;;5056700;28;20052;-73
2023/08/18 01:05:53;;;;;;;2.63;1.60;;;16.10;99.90;;;;;;5056519;28;20056;-73
2023/08/18 01:08:19;;;;;;;3.28;1.60;;;16.10;99.90;;;;;;5022720;28;20414;-73
2023/08/18 01:10:55;;;;;;;3.13;1.40;;;16.10;99.90;;;;;;5056481;28;20068;-73
2023/08/18 01:13:25;;;;;;;2.58;1.70;;;16.10;99.90;;;;;;5055559;28;20053;-73
2023/08/18 01:15:56;;;;;;;3.03;1.60;;;16.10;99.90;;;;;;5057055;28;20041;-73
2023/08/18 01:18:22;;;;;;;2.90;1.58;;;16.10;99.90;;;;;;5056483;28;20080;-73
2023/08/18 01:20:50;;;;;;;3.53;1.40;;;16.10;99.90;;;;;;5057005;28;20067;-73
2023/08/18 01:23:17;;;;;;;2.45;1.50;;;16.10;99.90;;;;;;5057122;28;20115;-73
2023/08/18 01:25:43;;;;;;;3.67;1.90;;;16.10;99.90;;;;;;5056789;28;20045;-73
2023/08/18 01:28:08;;;;;;;4.65;1.98;;;16.10;99.90;;;;;;5056248;28;20040;-73
2023/08/18 01:30:52;;;;;;;2.95;1.77;;;16.10;99.90;;;;;;5055888;28;20118;-73
2023/08/18 01:33:29;;;;;;;4.93;2.20;;;16.10;99.90;;;;;;5055915;28;20508;-73
2023/08/18 01:36:02;;;;;;;2.92;1.90;;;16.20;99.90;;;;;;5056666;28;20045;-73
2023/08/18 01:38:30;;;;;;;3.08;2.05;;;16.20;99.90;;;;;;5056120;28;20053;-73
2023/08/18 01:40:57;;;;;;;2.65;1.73;;;16.20;99.90;;;;;;5038419;28;20092;-73
2023/08/18 01:43:23;;;;;;;4.43;2.00;;;16.20;99.90;;;;;;5038267;28;20053;-73
2023/08/18 01:45:49;;;;;;;2.97;2.17;;;16.20;99.90;;;;;;5056112;28;20049;-73
2023/08/18 01:48:15;;;;;;;3.75;2.15;;;16.20;99.90;;;;;;5055863;28;20045;-73
2023/08/18 01:50:40;;;;;;;4.78;2.30;;;16.20;99.90;;;;;;5056406;28;20060;-73
2023/08/18 01:53:06;;;;;;;4.20;2.33;;;16.20;99.90;;;;;;5056166;28;20086;-73
2023/08/18 01:55:32;;;;;;;3.40;2.28;;;16.20;99.90;;;;;;5038170;28;20055;-73
2023/08/18 01:57:57;;;;;;;5.97;2.50;;;16.20;99.90;;;;;;5055687;28;20053;-73
2023/08/18 02:00:23;;;;;;;4.45;2.20;;;16.20;99.90;;;;;;5056176;28;20128;-73
2023/08/18 02:02:49;;;;;;;5.32;2.47;;;16.20;99.90;;;;;;5055739;28;20537;-73
2023/08/18 02:05:15;;;;;;;5.40;2.67;;;16.20;99.90;;;;;;5055986;28;20044;-73
2023/08/18 02:07:40;;;;;;;5.35;2.70;;;16.20;99.90;;;;;;5055733;28;20092;-73
2023/08/18 02:10:07;;;;;;;4.15;2.47;;;16.20;99.90;;;;;;5056213;28;20053;-73
2023/08/18 02:12:32;;;;;;;5.63;2.38;;;16.20;99.90;;;;;;5055111;28;20504;-73
2023/08/18 02:14:58;;;;;;;4.30;2.50;;;16.20;99.90;;;;;;5055704;28;20120;-73
2023/08/18 02:17:29;;;;;;;4.78;2.60;;;16.30;99.90;;;;;;5056244;28;20454;-73
2023/08/18 02:19:58;;;;;;;9.65;3.30;;;16.20;99.90;;;;;;5056063;28;20048;-73
2023/08/18 02:22:25;;;;;;;5.93;3.03;;;16.20;99.90;;;;;;5055153;28;20048;-73
2023/08/18 02:24:51;;;;;;;7.43;2.90;;;16.20;99.90;;;;;;5037971;28;20040;-73
2023/08/18 02:27:17;;;;;;;4.53;2.72;;;16.20;99.90;;;;;;5055084;28;20037;-73
2023/08/18 02:29:43;;;;;;;5.18;2.53;;;16.20;99.90;;;;;;5055111;28;20037;-73
2023/08/18 02:32:09;;;;;;;4.78;2.67;;;16.20;99.90;;;;;;5037793;28;20036;-73
2023/08/18 02:34:35;;;;;;;4.93;2.78;;;16.20;99.90;;;;;;5055013;28;20470;-73
2023/08/18 02:37:01;;;;;;;5.30;2.90;;;16.20;99.90;;;;;;5055018;28;20393;-73
2023/08/18 02:39:27;;;;;;;6.13;2.78;;;16.20;99.90;;;;;;5054813;28;20041;-73
2023/08/18 02:41:53;;;;;;;4.68;3.08;;;16.20;99.90;;;;;;5037338;28;20076;-73
2023/08/18 02:44:20;;;;;;;6.75;2.95;;;16.20;99.90;;;;;;5054784;28;20052;-73
2023/08/18 02:46:47;;;;;;;6.97;2.85;;;16.10;99.90;;;;;;5054284;28;20045;-73
2023/08/18 02:49:13;;;;;;;5.15;2.70;;;16.20;99.90;;;;;;5055497;28;20132;-73
2023/08/18 02:51:39;;;;;;;7.25;3.00;;;16.20;99.90;;;;;;5037103;28;20127;-73
2023/08/18 02:54:05;;;;;;;6.88;3.42;;;16.20;99.90;;;;;;5054596;28;20049;-73
2023/08/18 02:56:32;;;;;;;7.00;2.80;;;16.20;99.90;;;;;;5054252;28;20049;-73
2023/08/18 02:58:57;;;;;;;5.13;2.92;;;16.20;99.90;;;;;;5054992;28;20052;-74
2023/08/18 03:01:23;;;;;;;4.78;2.90;;;16.20;99.90;;;;;;5054153;28;20446;-73
2023/08/18 03:03:49;;;;;;;6.95;3.50;;;16.20;99.90;;;;;;5054969;28;20045;-74
2023/08/18 03:06:15;;;;;;;4.95;2.90;;;16.20;99.90;;;;;;5054279;28;20056;-73
2023/08/18 03:08:40;;;;;;;6.57;3.20;;;16.20;99.90;;;;;;5036274;28;20056;-73
2023/08/18 03:11:06;;;;;;;5.18;2.60;;;16.20;99.90;;;;;;5054998;28;20059;-73
2023/08/18 03:13:33;;;;;;;4.68;2.85;;;16.20;99.90;;;;;;5054496;28;20371;-73
2023/08/18 03:15:58;;;;;;;5.22;3.03;;;16.20;99.90;;;;;;5054257;28;20076;-73
2023/08/18 03:18:24;;;;;;;5.35;3.05;;;16.20;99.90;;;;;;5054191;28;20083;-73
2023/08/18 03:20:56;;;;;;;5.25;2.90;;;16.20;99.90;;;;;;5054930;28;20236;-73
2023/08/18 03:23:22;;;;;;;6.25;2.70;;;16.20;99.90;;;;;;5054047;28;20053;-73
2023/08/18 03:25:48;;;;;;;4.53;2.80;;;16.20;99.90;;;;;;5053988;28;20048;-74
2023/08/18 03:28:13;;;;;;;5.63;3.33;;;16.20;99.90;;;;;;5054053;28;20101;-73
2023/08/18 03:30:40;;;;;;;4.95;3.20;;;16.20;99.90;;;;;;5054073;28;20049;-73
2023/08/18 03:33:06;;;;;;;7.72;3.53;;;16.20;99.90;;;;;;5053941;28;20367;-73
2023/08/18 03:35:35;;;;;;;5.57;2.72;;;16.20;99.90;;;;;;5053913;28;20051;-73
2023/08/18 03:38:01;;;;;;;4.22;3.17;;;16.20;99.90;;;;;;5052812;28;20041;-72
2023/08/18 03:40:27;;;;;;;5.72;3.20;;;16.20;99.90;;;;;;5053742;28;20049;-73
2023/08/18 03:42:52;;;;;;;4.78;3.00;;;16.20;99.90;;;;;;5036098;28;20071;-73
2023/08/18 03:45:18;;;;;;;6.18;3.20;;;16.10;99.90;;;;;;5054243;28;20556;-72
2023/08/18 03:47:45;;;;;;;5.07;3.08;;;16.10;99.90;;;;;;5053795;28;20052;-72
2023/08/18 03:50:11;;;;;;;7.22;2.97;;;16.10;99.90;;;;;;5053666;28;20052;-72
2023/08/18 03:52:37;;;;;;;6.40;3.00;;;16.10;99.90;;;;;;5052736;28;20107;-73
2023/08/18 03:55:04;;;;;;;4.82;2.90;;;16.10;99.90;;;;;;5053640;28;20478;-73
2023/08/18 03:57:30;;;;;;;3.95;2.58;;;16.10;99.90;;;;;;5053094;28;20053;-74
2023/08/18 03:59:56;;;;;;;4.30;2.90;;;16.10;99.90;;;;;;5053540;28;20056;-74
2023/08/18 04:02:22;;;;;;;6.15;3.20;;;16.10;99.90;;;;;;5053604;28;20044;-73
2023/08/18 04:04:48;;;;;;;4.35;3.10;;;16.10;99.90;;;;;;5053429;28;20128;-73
2023/08/18 04:07:14;;;;;;;4.32;3.05;;;16.10;99.90;;;;;;5053498;28;20557;-73
2023/08/18 04:09:40;;;;;;;5.13;3.00;;;16.10;99.90;;;;;;5053436;28;20052;-73
2023/08/18 04:12:06;;;;;;;4.80;3.60;;;16.10;99.90;;;;;;5053911;28;20110;-74
2023/08/18 04:14:31;;;;;;;6.55;3.55;;;16.10;99.90;;;;;;5035981;28;20068;-73
2023/08/18 04:16:57;;;;;;;7.10;3.40;;;16.10;99.90;;;;;;5053015;28;20048;-73
2023/08/18 04:19:23;;;;;;;6.95;3.42;;;16.10;99.90;;;;;;5035804;28;20080;-73
2023/08/18 04:21:48;;;;;;;5.47;3.17;;;16.10;99.90;;;;;;5053681;28;20045;-73
2023/08/18 04:24:14;;;;;;;5.72;3.13;;;16.10;99.90;;;;;;5053563;28;20466;-72
2023/08/18 04:26:40;;;;;;;6.05;3.80;;;16.10;99.90;;;;;;5052105;28;20403;-72
2023/08/18 04:29:06;;;;;;;6.30;3.63;;;16.10;99.90;;;;;;5035345;28;20115;-73
2023/08/18 04:31:31;;;;;;;5.43;3.35;;;16.10;99.90;;;;;;5052515;28;20088;-73
2023/08/18 04:33:58;;;;;;;7.30;3.70;;;16.20;99.90;;;;;;5051190;28;20497;-73
2023/08/18 04:36:23;;;;;;;4.65;3.22;;;16.20;99.90;;;;;;5053027;28;20417;-73
2023/08/18 04:38:49;;;;;;;4.95;3.13;;;16.20;99.90;;;;;;5052952;28;20127;-73
2023/08/18 04:41:15;;;;;;;5.93;3.20;;;16.20;99.90;;;;;;5052962;28;20394;-73
2023/08/18 04:43:41;;;;;;;6.18;3.53;;;16.20;99.90;;;;;;5052277;28;20049;-72
2023/08/18 04:46:07;;;;;;;7.95;3.40;;;16.20;99.90;;;;;;5053451;28;20111;-73
2023/08/18 04:48:33;;;;;;;5.25;3.15;;;16.20;99.90;;;;;;5053481;28;20429;-73
2023/08/18 04:50:59;;;;;;;5.13;3.10;;;16.20;99.90;;;;;;5052901;28;20048;-73
2023/08/18 04:53:25;;;;;;;7.32;3.42;;;16.20;99.90;;;;;;5053015;28;20140;-72
2023/08/18 04:55:51;;;;;;;5.18;3.42;;;16.20;99.90;;;;;;5052926;28;20128;-72
2023/08/18 04:58:17;;;;;;;6.10;3.15;;;16.20;99.90;;;;;;5053125;28;20080;-72
2023/08/18 05:00:43;;;;;;;5.95;3.50;;;16.20;99.90;;;;;;5053050;28;20111;-72
2023/08/18 05:03:09;;;;;;;4.82;3.22;;;16.20;99.90;;;;;;5052004;28;20048;-73
2023/08/18 05:06:00;;;;;;;3.97;2.70;;;16.30;99.90;;;;;;5053204;28;20049;-73
2023/08/18 05:08:30;;;;;;;3.95;2.80;;;16.30;99.90;;;;;;5052045;28;20049;-72
2023/08/18 05:11:00;;;;;;;4.40;3.03;;;16.30;99.90;;;;;;5056074;28;20048;-73
2023/08/18 05:13:25;;;;;;;4.93;3.15;;;16.30;99.90;;;;;;5055600;28;20441;-72
2023/08/18 05:15:52;;;;;;;5.95;3.15;;;16.30;99.90;;;;;;5057005;28;20084;-73
2023/08/18 05:18:19;;;;;;;4.53;3.17;;;16.30;99.90;;;;;;5038947;28;20401;-72
2023/08/18 05:20:45;;;;;;;5.55;3.05;;;16.30;99.90;;;;;;5056498;28;20099;-73
2023/08/18 05:23:10;;;;;;;5.70;3.17;;;16.30;99.90;;;;;;5038633;28;20136;-73
2023/08/18 05:25:36;;;;;;;5.03;3.03;;;16.30;99.90;;;;;;5057088;28;20047;-73
2023/08/18 05:28:02;;;;;;;4.93;3.40;;;16.30;99.90;;;;;;5056380;28;20045;-73
2023/08/18 05:30:28;;;;;;;5.32;3.50;;;16.30;99.90;;;;;;5056171;28;20052;-73
2023/08/18 05:32:54;;;;;;;6.70;3.83;;;16.30;99.90;;;;;;5038554;28;20416;-72
2023/08/18 05:35:19;;;;;;;6.50;3.83;;;16.40;99.90;;;;;;5056591;28;20103;-72
2023/08/18 05:37:45;;;;;;;6.75;3.58;;;16.40;99.90;;;;;;5056085;28;20044;-73
2023/08/18 05:40:11;;;;;;;8.27;3.80;;;16.30;99.90;;;;;;5055893;28;20481;-73
2023/08/18 05:42:36;;;;;;;5.03;3.05;;;16.30;99.90;;;;;;5055999;28;20474;-73
2023/08/18 05:45:03;;;;;;;5.72;3.72;;;16.40;99.90;;;;;;5055912;28;20045;-73
2023/08/18 05:47:28;;;;;;;6.03;3.30;;;16.40;99.90;;;;;;5055894;28;20103;-73
2023/08/18 05:49:54;;;;;;;8.13;4.03;;;16.40;99.90;;;;;;5056200;28;20044;-72
2023/08/18 05:52:20;;;;;;;6.10;3.35;;;16.40;99.90;;;;;;5055811;28;20049;-73
2023/08/18 05:54:45;;;;;;;6.63;3.95;;;16.40;99.90;;;;;;5055750;28;20048;-73
2023/08/18 05:57:12;;;;;;;7.38;3.92;;;16.40;99.90;;;;;;5055458;28;20120;-73
2023/08/18 05:59:38;;;;;;;6.75;4.20;;;16.40;99.90;;;;;;5055646;28;20055;-73
2023/08/18 06:02:04;;;;;;;7.82;3.63;;;16.50;99.90;;;;;;5038279;28;20049;-73
2023/08/18 06:04:30;;;;;;;6.97;3.92;;;16.50;99.90;;;;;;5056049;28;20048;-72
2023/08/18 06:06:55;;;;;;;9.52;3.75;;;16.50;99.90;;;;;;5054540;28;20048;-72
2023/08/18 06:09:21;;;;;;;9.20;4.05;;;16.50;99.90;;;;;;5055232;28;20056;-73
2023/08/18 06:11:47;;;;;;;7.65;3.58;;;16.50;99.90;;;;;;5055892;28;20131;-69
2023/08/18 06:14:13;;;;;;;6.97;3.80;;;16.60;99.90;;;;;;5055472;28;20060;-70
2023/08/18 06:16:39;;;;;;;5.03;3.00;;;16.60;99.90;;;;;;5038341;28;20044;-70
2023/08/18 06:19:04;;;;;;;6.35;3.55;;;16.60;99.90;;;;;;5037836;28;20047;-73
2023/08/18 06:21:30;;;;;;;6.07;3.85;;;16.60;99.90;;;;;;5053126;28;20056;-70
2023/08/18 06:23:56;;;;;;;6.90;3.70;;;16.60;99.90;;;;;;5055439;28;20056;-72
2023/08/18 06:26:21;;;;;;;5.82;3.70;;;16.60;99.90;;;;;;5055102;28;20538;-70
2023/08/18 06:28:47;;;;;;;6.50;3.60;;;16.60;99.90;;;;;;5056074;28;20098;-70
2023/08/18 06:31:13;;;;;;;7.20;3.65;;;16.60;99.90;;;;;;5055592;28;20084;-70
2023/08/18 06:33:38;;;;;;;4.68;3.47;;;16.70;99.90;;;;;;5037040;28;20094;-70
2023/08/18 06:36:04;;;;;;;5.85;3.80;;;16.60;99.90;;;;;;5054898;28;20044;-71
2023/08/18 06:38:30;;;;;;;6.80;4.00;;;16.70;99.90;;;;;;5037717;28;20526;-70
2023/08/18 06:40:56;;;;;;;5.07;3.97;;;16.70;99.90;;;;;;5055548;28;20048;-70
2023/08/18 06:43:21;;;;;;;7.88;4.65;;;16.80;99.90;;;;;;5055349;28;20489;-70
2023/08/18 06:45:47;;;;;;;8.02;4.55;;;16.80;99.90;;;;;;5054593;28;20360;-71
2023/08/18 06:48:13;;;;;;;5.65;4.05;;;16.90;99.90;;;;;;5055217;28;20429;-71
2023/08/18 06:50:38;;;;;;;6.78;4.13;;;16.90;99.90;;;;;;5054686;28;20048;-71
2023/08/18 06:53:04;;;;;;;8.45;4.53;;;16.90;99.90;;;;;;5054947;28;20127;-71
2023/08/18 06:55:31;;;;;;;5.68;4.10;;;17.00;99.90;;;;;;5054863;28;20041;-71
2023/08/18 06:57:57;;;;;;;8.27;4.30;;;17.00;99.90;;;;;;5053559;28;20087;-70
2023/08/18 07:00:23;;;;;;;7.40;5.07;;;17.00;99.90;;;;;;5036789;28;20049;-70
2023/08/18 07:02:49;;;;;;;7.03;4.80;;;17.00;99.90;;;;;;5054414;28;20060;-70
2023/08/18 07:05:16;;;;;;;8.15;4.90;;;17.00;99.90;;;;;;5054320;28;20047;-71
2023/08/18 07:07:42;;;;;;;7.40;4.50;;;17.00;99.90;;;;;;5054246;28;20049;-70
2023/08/18 07:10:09;;;;;;;9.55;5.25;;;17.10;99.90;;;;;;5054603;28;20057;-70
2023/08/18 07:12:35;;;;;;;9.20;5.00;;;17.10;99.90;;;;;;5036732;28;20052;-70
2023/08/18 07:15:00;;;;;;;10.75;5.40;;;17.20;99.90;;;;;;5054197;28;20045;-71
2023/08/18 07:17:26;;;;;;;10.88;5.72;;;17.20;99.90;;;;;;5054949;28;20037;-70
2023/08/18 07:19:52;;;;;;;12.02;5.50;;;17.20;99.90;;;;;;5037046;28;20056;-71
2023/08/18 07:22:17;;;;;;;10.88;5.93;;;17.20;99.90;;;;;;5054108;28;20098;-71
2023/08/18 07:24:43;;;;;;;9.27;5.55;;;17.30;99.90;;;;;;5036126;28;20388;-71
2023/08/18 07:27:09;;;;;;;13.55;6.22;;;17.30;99.90;;;;;;5054523;28;20052;-70
2023/08/18 07:29:35;;;;;;;13.20;5.18;;;17.30;99.90;;;;;;5053827;28;20056;-71
2023/08/18 07:32:01;;;;;;;10.63;5.20;;;17.30;99.90;;;;;;5053252;28;20470;-73
2023/08/18 07:34:27;;;;;;;12.80;6.43;;;17.30;99.90;;;;;;5053983;28;20048;-72
2023/08/18 07:36:52;;;;;;;11.02;6.15;;;17.30;99.90;;;;;;5053739;28;20132;-72
2023/08/18 07:39:18;;;;;;;12.75;6.50;;;17.30;99.90;;;;;;5036148;28;20440;-72
2023/08/18 07:41:44;;;;;;;13.82;6.55;;;17.30;99.90;;;;;;5054190;28;20056;-71
2023/08/18 07:44:10;;;;;;;13.40;6.65;;;17.30;99.90;;;;;;5053710;28;20049;-70
2023/08/18 07:46:36;;;;;;;16.70;7.00;;;17.30;99.90;;;;;;5053566;28;20080;-71
2023/08/18 07:49:03;;;;;;;13.95;7.15;;;17.40;99.90;;;;;;5053942;28;20128;-72
2023/08/18 07:51:29;;;;;;;13.23;6.05;;;17.40;99.90;;;;;;5036143;28;20561;-73
2023/08/18 07:53:55;;;;;;;13.35;6.95;;;17.40;99.90;;;;;;5053553;28;20045;-71
2023/08/18 07:56:21;;;;;;;15.50;6.45;;;17.50;99.90;;;;;;5019450;28;20460;-71
2023/08/18 07:58:46;;;;;;;15.80;6.55;;;17.50;99.90;;;;;;5053135;28;20064;-71
2023/08/18 08:01:12;;;;;;;9.95;5.97;;;17.60;99.90;;;;;;5053314;28;20098;-72
2023/08/18 08:03:38;;;;;;;14.63;6.80;;;17.60;99.90;;;;;;5053383;28;20049;-70
2023/08/18 08:06:06;;;;;;;13.80;6.47;;;17.70;99.90;;;;;;5036516;28;20048;-70
2023/08/18 08:08:32;;;;;;;15.43;6.63;;;17.80;99.90;;;;;;5053228;28;20088;-71
2023/08/18 08:10:58;;;;;;;12.23;6.13;;;17.80;99.90;;;;;;5035514;28;20057;-72
2023/08/18 08:13:24;;;;;;;9.63;5.40;;;18.00;99.90;;;;;;5053379;28;20041;-71
2023/08/18 08:15:50;;;;;;;11.43;6.57;;;18.00;99.90;;;;;;5036269;28;20351;-69
2023/08/18 08:18:18;;;;;;;11.60;6.40;;;18.10;99.90;;;;;;5053356;28;20055;-71
2023/08/18 08:20:44;;;;;;;12.32;5.65;;;18.20;99.90;;;;;;5052311;28;20439;-70
2023/08/18 08:23:10;;;;;;;13.20;6.00;;;18.20;99.90;;;;;;5035265;28;20040;-69
2023/08/18 08:25:37;;;;;;;11.63;5.75;;;18.30;99.90;;;;;;5035507;28;20087;-70
2023/08/18 08:28:03;;;;;;;10.95;5.88;;;18.50;99.90;;;;;;5035681;28;20085;-69
2023/08/18 08:30:29;;;;;;;9.85;6.03;;;18.50;99.90;;;;;;5053067;28;20102;-70
2023/08/18 08:32:55;;;;;;;9.70;6.13;;;18.60;99.90;;;;;;5053688;28;20046;-70
2023/08/18 08:35:21;;;;;;;11.85;5.60;;;18.60;99.90;;;;;;5052949;28;20500;-70
2023/08/18 08:37:47;;;;;;;10.27;5.72;;;18.70;99.90;;;;;;5053122;28;20052;-73
2023/08/18 08:40:20;;;;;;;9.05;5.32;;;18.80;99.90;;;;;;5052904;28;20068;-71
2023/08/18 08:42:53;;;;;;;8.70;4.95;;;18.80;99.90;;;;;;5052435;28;20059;-71
2023/08/18 08:45:20;;;;;;;8.95;5.57;;;18.90;99.90;;;;;;5056288;28;20086;-70
2023/08/18 08:47:47;;;;;;;8.98;5.20;;;19.00;99.90;;;;;;5039389;28;20053;-72
2023/08/18 08:50:16;;;;;;;8.13;5.10;;;19.10;99.90;;;;;;5056937;28;20071;-72
2023/08/18 08:52:44;;;;;;;8.65;5.30;;;19.20;99.90;;;;;;5056773;28;20048;-71
2023/08/18 08:55:12;;;;;;;9.30;5.53;;;19.30;99.90;;;;;;5056904;28;20454;-71
2023/08/18 08:57:39;;;;;;;9.73;5.38;;;19.30;99.90;;;;;;5056410;28;20165;-71
2023/08/18 09:00:05;;;;;;;9.35;5.20;;;19.40;99.90;;;;;;5039055;28;20107;-72
2023/08/18 09:02:32;;;;;;;9.25;5.30;;;19.40;99.90;;;;;;5039351;28;20041;-71
2023/08/18 09:05:00;;;;;;;10.70;5.65;;;19.50;99.90;;;;;;5056523;28;20543;-71
2023/08/18 09:07:28;;;;;;;10.13;5.60;;;19.60;99.90;;;;;;5056407;28;20041;-73
2023/08/18 09:09:53;;;;;;;11.07;5.57;;;19.80;99.90;;;;;;5056163;28;20100;-71
2023/08/18 09:12:29;;;;;;;9.38;5.25;;;19.80;99.90;;;;;;5057004;28;20469;-73
2023/08/18 09:14:55;;;;;;;;;;;19.80;99.90;;;;;;5056646;28;20095;-70
2023/08/18 09:17:24;;;;;;;10.65;5.90;;;19.80;99.90;;;;;;5056190;28;19925;-71
2023/08/18 09:19:50;;;;;;;9.52;6.10;;;19.90;99.90;;;;;;5038819;28;20045;-77
2023/08/18 09:22:23;;;;;;;9.43;4.97;;;20.00;99.90;;;;;;5056056;28;20045;-71
2023/08/18 09:24:53;;;;;;;7.70;4.90;;;20.10;99.90;;;;;;5056045;28;20045;-72
2023/08/18 09:27:20;;;;;;;9.63;5.15;;;20.10;99.90;;;;;;5055786;28;20102;-72
2023/08/18 09:29:46;;;;;;;8.27;5.15;;;20.20;99.90;;;;;;5038442;28;20111;-73
2023/08/18 09:32:11;;;;;;;7.05;5.03;;;20.20;99.90;;;;;;5055880;28;20104;-72
2023/08/18 09:34:44;;;;;;;7.85;5.13;;;20.30;99.90;;;;;;5056673;28;20046;-72
2023/08/18 09:37:10;;;;;;;8.88;5.07;;;20.40;99.90;;;;;;5055747;28;20124;-75
2023/08/18 09:39:36;;;;;;;6.90;5.10;;;20.40;99.90;;;;;;5055574;28;20076;-72
2023/08/18 09:42:02;;;;;;;11.48;5.15;;;20.40;99.90;;;;;;5055209;28;20052;-73
2023/08/18 09:44:28;;;;;;;6.88;4.63;;;20.50;99.90;;;;;;5055364;28;20568;-71
2023/08/18 09:46:58;;;;;;;6.10;4.15;;;20.40;99.90;;;;;;5055483;28;20083;-71
2023/08/18 09:49:25;;;;;;;7.00;4.93;;;20.40;99.90;;;;;;5055524;28;20386;-71
2023/08/18 09:51:55;;;;;;;6.28;4.20;;;20.40;99.90;;;;;;5037690;28;20037;-70
2023/08/18 09:54:27;;;;;;;7.90;4.88;;;20.40;99.90;;;;;;5055395;28;20041;-76
2023/08/18 09:56:59;;;;;;;6.55;4.55;;;20.40;99.90;;;;;;5036613;28;20040;-71
2023/08/18 09:59:35;;;;;;;7.85;4.68;;;20.50;99.90;;;;;;5037833;28;20056;-81
2023/08/18 10:02:03;;;;;;;6.88;4.57;;;20.70;99.90;;;;;;5055974;28;20148;-72
2023/08/18 10:04:36;;;;;;;6.93;4.45;;;20.80;99.90;;;;;;5054903;28;20497;-72
2023/08/18 10:07:03;;;;;;;6.70;4.63;;;20.90;99.90;;;;;;5055388;28;20048;-72
2023/08/18 10:09:33;;;;;;;6.80;5.28;;;21.00;99.90;;;;;;5054843;28;20490;-72
2023/08/18 10:12:02;;;;;;;7.05;5.10;;;21.00;99.90;;;;;;5055185;28;20044;-72
2023/08/18 10:14:30;;;;;;;7.47;4.88;;;21.10;99.90;;;;;;5055161;28;20045;-71
2023/08/18 10:16:57;;;;;;;6.88;4.55;;;21.10;99.90;;;;;;5054954;28;20029;-72
2023/08/18 10:19:50;;;;;;;7.60;5.32;;;21.10;99.90;;;;;;5037258;28;20094;-72
2023/08/18 10:22:22;;;;;;;11.98;6.00;;;21.20;99.90;;;;;;5054800;28;20040;-73
2023/08/18 10:24:48;;;;;;;8.88;5.55;;;21.30;99.90;;;;;;5054414;28;20041;-73
2023/08/18 10:27:29;;;;;;;8.93;6.20;;;21.50;99.90;;;;;;5054923;28;20099;-72
2023/08/18 10:30:21;;;;;;;8.98;5.78;;;21.60;99.90;;;;;;5055352;28;20413;-72
2023/08/18 10:32:47;;;;;;;7.20;5.22;;;21.60;99.90;;;;;;5053612;28;20059;-72
2023/08/18 10:35:27;;;;;;;6.85;5.63;;;21.60;99.90;;;;;;5054744;28;20355;-74
2023/08/18 10:37:57;;;;;;;6.40;4.85;;;21.50;99.90;;;;;;5054517;28;20045;-72
2023/08/18 10:40:37;;;;;;;6.47;5.18;;;21.50;99.90;;;;;;5054459;28;20075;-71
2023/08/18 10:43:13;;;;;;;8.18;5.32;;;21.50;99.90;;;;;;5054996;28;20044;-71
2023/08/18 10:45:40;;;;;;;7.13;5.63;;;21.50;99.90;;;;;;5037348;28;20478;-71
2023/08/18 10:48:07;;;;;;;10.77;5.28;;;21.60;99.90;;;;;;5054752;28;20041;-71
2023/08/18 10:50:38;;;;;;;6.93;5.18;;;21.80;99.90;;;;;;5053119;28;20545;-71
2023/08/18 10:53:04;;;;;;;7.32;5.35;;;21.90;99.90;;;;;;5054368;28;20056;-71
2023/08/18 10:55:31;;;;;;;7.47;6.00;;;21.90;99.90;;;;;;5053652;28;20064;-70
2023/08/18 10:57:56;;;;;;;9.27;6.40;;;22.10;99.90;;;;;;5036435;28;20132;-70
2023/08/18 11:00:22;;;;;;;9.05;6.63;;;22.00;99.90;;;;;;5036285;28;20140;-71
2023/08/18 11:02:50;;;;;;;7.03;5.70;;;22.00;99.90;;;;;;5054215;28;20389;-71
2023/08/18 11:05:22;;;;;;;7.93;5.88;;;22.10;99.90;;;;;;5053907;28;20043;-71
2023/08/18 11:07:50;;;;;;;9.57;6.60;;;22.10;99.90;;;;;;5035987;28;20067;-70
2023/08/18 11:10:20;;;;;;;8.55;6.28;;;22.20;99.90;;;;;;5054037;28;20045;-71
2023/08/18 11:12:48;;;;;;;9.95;6.47;;;22.30;99.90;;;;;;5036110;28;20102;-71
2023/08/18 11:15:14;;;;;;;9.75;6.45;;;22.50;99.90;;;;;;5054021;28;20516;-70
2023/08/18 11:17:42;;;;;;;7.60;6.15;;;22.90;99.90;;;;;;5054035;28;20060;-71
2023/08/18 11:20:11;;;;;;;8.32;6.68;;;23.30;99.90;;;;;;5053871;28;20048;-70
2023/08/18 11:22:39;;;;;;;9.10;7.18;;;23.70;99.90;;;;;;5053857;28;20053;-71
2023/08/18 11:25:05;;;;;;;8.68;6.75;;;23.80;99.90;;;;;;5053759;28;20045;-73
2023/08/18 11:27:34;;;;;;;9.13;6.75;;;23.80;99.90;;;;;;5053762;28;20041;-71
2023/08/18 11:30:00;;;;;;;10.30;7.60;;;23.70;99.90;;;;;;5053727;28;20053;-72
2023/08/18 11:32:27;;;;;;;10.18;7.38;;;23.90;99.90;;;;;;5053584;28;20512;-71
2023/08/18 11:34:53;;;;;;;9.18;6.72;;;24.20;99.90;;;;;;5053608;28;20049;-73
2023/08/18 11:37:21;;;;;;;9.10;6.82;;;24.50;99.90;;;;;;5053561;28;20055;-71
2023/08/18 11:39:46;;;;;;;8.02;6.40;;;24.70;99.90;;;;;;5053656;28;20053;-71
2023/08/18 11:42:12;;;;;;;7.10;6.03;;;25.00;99.90;;;;;;5036400;28;20102;-72
2023/08/18 11:44:38;;;;;;;8.07;6.30;;;25.20;99.90;;;;;;5035608;28;20497;-72
2023/08/18 11:47:09;;;;;;;7.47;6.18;;;25.20;99.90;;;;;;5053940;28;20049;-72
2023/08/18 11:49:35;;;;;;;8.40;6.82;;;25.20;99.90;;;;;;5053208;28;20044;-74
2023/08/18 11:52:05;;;;;;;8.27;6.28;;;25.30;99.90;;;;;;5036265;28;20367;-72
2023/08/18 11:54:35;;;;;;;8.75;7.47;;;25.20;99.90;;;;;;5053360;28;20095;-72
2023/08/18 11:57:03;;;;;;;9.80;7.20;;;25.00;99.90;;;;;;5054200;28;20428;-72
2023/08/18 11:59:29;;;;;;;8.60;6.43;;;24.90;99.90;;;;;;5052336;28;20478;-73
2023/08/18 12:01:56;;;;;;;16.30;6.88;;;25.00;99.90;;;;;;5053217;28;20055;-72
2023/08/18 12:04:25;;;;;;;8.95;7.50;;;25.20;99.90;;;;;;5053130;28;20049;-72
2023/08/18 12:06:51;;;;;;;7.50;5.85;;;25.30;99.90;;;;;;5035221;28;20155;-72
2023/08/18 12:09:18;;;;;;;8.32;6.55;;;25.40;99.90;;;;;;5052868;28;20057;-73
2023/08/18 12:11:43;;;;;;;8.02;6.18;;;25.60;99.90;;;;;;5053008;28;20632;-73
2023/08/18 12:14:09;;;;;;;8.27;6.68;;;25.70;99.90;;;;;;5054608;28;20135;-72
2023/08/18 12:16:35;;;;;;;7.60;6.35;;;25.80;99.90;;;;;;5053102;28;20390;-73
2023/08/18 12:19:04;;;;;;;9.27;6.55;;;25.80;99.90;;;;;;5053371;28;20048;-72
2023/08/18 12:21:31;;;;;;;7.63;6.20;;;25.50;99.90;;;;;;5057220;28;20088;-72
2023/08/18 12:23:58;;;;;;;7.45;5.78;;;25.40;99.90;;;;;;5057764;28;20041;-71
2023/08/18 12:26:24;;;;;;;9.07;6.38;;;25.20;99.90;;;;;;5057008;28;20143;-72
2023/08/18 12:28:49;;;;;;;9.10;6.80;;;25.10;99.90;;;;;;5057075;28;20147;-74
2023/08/18 12:31:18;;;;;;;8.95;6.03;;;25.20;99.90;;;;;;5039299;28;20056;-72
2023/08/18 12:33:44;;;;;;;8.32;7.05;;;25.50;99.90;;;;;;5057272;28;20461;-71
2023/08/18 12:36:10;;;;;;;8.65;7.50;;;25.80;99.90;;;;;;5057782;28;20429;-71
2023/08/18 12:38:36;;;;;;;8.20;6.68;;;25.90;99.90;;;;;;5057418;28;20470;-72
2023/08/18 12:41:03;;;;;;;10.07;7.13;;;26.10;99.90;;;;;;5056799;28;20048;-72
2023/08/18 12:43:29;;;;;;;8.98;6.82;;;26.40;99.90;;;;;;5056381;28;20474;-72
2023/08/18 12:45:56;;;;;;;9.60;7.40;;;26.70;99.90;;;;;;5057228;28;20064;-71